Time;durP1;ratioP1;P1;durP2;ratioP2;P2;SDS_P1;SDS_P2;PMS_P1;PMS_P2;Temp;Humidity;BMP_temperature;BMP_pressure;BME280_temperature;BME280_humidity;BME280_pressure;Samples;Min_cycle;Max_cycle;Signal;HPM_P1;HPM_P2
2023/03/09 00:01:27;;;;;;;26.15;13.82;;;;;;;2.39;83.08;98996.78;5092749;28;20225;-88
2023/03/09 00:03:53;;;;;;;26.80;14.15;;;;;;;2.43;83.04;98998.38;5062236;28;20024;-89
2023/03/09 00:06:18;;;;;;;24.48;13.52;;;;;;;2.38;83.10;98994.19;5078888;28;20368;-89
2023/03/09 00:08:48;;;;;;;26.75;13.77;;;;;;;2.49;83.34;98992.06;5093198;28;20028;-90
2023/03/09 00:11:15;;;;;;;26.15;13.38;;;;;;;2.45;83.10;98975.66;5074812;28;20027;-89
2023/03/09 00:13:40;;;;;;;26.50;14.20;;;;;;;2.46;82.90;98973.91;5092771;28;20023;-89
2023/03/09 00:16:15;;;;;;;31.45;15.27;;;;;;;2.46;82.72;98968.69;5074700;28;20476;-90
2023/03/09 00:18:41;;;;;;;28.00;13.27;;;;;;;2.47;82.88;98986.91;5074569;28;20078;-89
2023/03/09 00:21:07;;;;;;;27.27;13.70;;;;;;;2.46;82.88;98963.47;5093155;28;20024;-89
2023/03/09 00:23:33;;;;;;;30.90;15.05;;;;;;;2.39;82.84;98949.84;5088727;28;20051;-89
2023/03/09 00:26:06;;;;;;;25.75;14.18;;;;;;;2.44;82.86;98989.63;5074896;28;21121;-90
2023/03/09 00:28:32;;;;;;;28.52;13.98;;;;;;;2.45;82.75;98990.47;5074523;28;20023;-89
2023/03/09 00:31:05;;;;;;;27.65;14.27;;;;;;;2.47;82.87;99010.38;5074547;28;20050;-89
2023/03/09 00:33:31;;;;;;;29.70;14.75;;;;;;;2.42;83.03;99001.84;5074141;28;20035;-90
2023/03/09 00:35:56;;;;;;;27.38;13.55;;;;;;;2.43;82.84;99011.41;5074814;28;20051;-89
2023/03/09 00:38:22;;;;;;;31.33;14.75;;;;;;;2.42;82.96;99004.47;5092599;28;20024;-90
2023/03/09 00:40:47;;;;;;;24.90;13.70;;;;;;;2.27;83.49;99013.69;5074520;28;20024;-90
2023/03/09 00:43:12;;;;;;;28.13;14.43;;;;;;;2.24;83.82;99015.59;5061462;28;20025;-90
2023/03/09 00:45:38;;;;;;;27.95;14.68;;;;;;;2.27;83.67;99021.50;5074666;28;20379;-90
2023/03/09 00:48:03;;;;;;;25.00;13.75;;;;;;;2.20;83.60;99017.44;5092354;28;20089;-90
2023/03/09 00:50:29;;;;;;;28.20;15.02;;;;;;;2.17;83.86;99012.31;5074184;28;20030;-90
2023/03/09 00:52:54;;;;;;;25.63;13.70;;;;;;;2.25;83.72;99020.72;5064213;28;20059;-90
2023/03/09 00:55:19;;;;;;;29.20;14.93;;;;;;;2.40;82.91;99027.16;5091775;28;20044;-90
2023/03/09 00:57:44;;;;;;;25.60;14.05;;;;;;;2.50;82.92;99033.72;5074132;28;20024;-90
2023/03/09 01:00:11;;;;;;;26.40;12.95;;;;;;;2.39;83.04;99041.09;5091936;28;20497;-90
2023/03/09 01:02:36;;;;;;;27.70;14.07;;;;;;;2.53;82.56;99041.44;5091646;28;20039;-90
2023/03/09 01:05:02;;;;;;;26.73;13.80;;;;;;;2.53;82.35;99058.88;5092080;28;20024;-90
2023/03/09 01:07:29;;;;;;;24.23;12.50;;;;;;;2.41;82.54;99044.50;5092210;28;20035;-90
2023/03/09 01:09:55;;;;;;;25.92;13.63;;;;;;;2.44;82.75;99054.81;5073696;28;20070;-90
2023/03/09 01:12:20;;;;;;;23.60;13.02;;;;;;;2.47;82.56;99057.34;5071158;28;20023;-90
2023/03/09 01:14:47;;;;;;;28.92;14.45;;;;;;;2.53;82.55;99077.97;5080404;28;20030;-90
2023/03/09 01:17:12;;;;;;;25.08;12.95;;;;;;;2.51;82.51;99105.00;5073654;28;20096;-90
2023/03/09 01:19:38;;;;;;;26.83;13.10;;;;;;;2.63;82.09;99119.38;5073554;28;20475;-90
2023/03/09 01:22:03;;;;;;;26.48;13.55;;;;;;;2.55;82.34;99096.16;5089134;28;20024;-90
2023/03/09 01:24:29;;;;;;;27.13;13.10;;;;;;;2.54;82.21;99095.31;5091890;28;20386;-90
2023/03/09 01:26:54;;;;;;;25.98;13.63;;;;;;;2.55;82.29;99104.84;5091805;28;20024;-90
2023/03/09 01:29:19;;;;;;;26.33;13.68;;;;;;;2.60;82.21;99107.28;5091448;28;20113;-90
2023/03/09 01:31:45;;;;;;;27.50;13.02;;;;;;;2.61;82.43;99100.31;5073195;28;20115;-90
2023/03/09 01:34:12;;;;;;;27.15;13.55;;;;;;;2.66;82.34;99120.13;5073407;28;20027;-90
2023/03/09 01:36:39;;;;;;;26.35;12.98;;;;;;;2.50;82.23;99125.03;5073472;28;20163;-90
2023/03/09 01:39:04;;;;;;;29.13;15.00;;;;;;;2.30;82.92;99112.69;5073318;28;20478;-90
2023/03/09 01:41:29;;;;;;;25.45;13.15;;;;;;;2.33;83.20;99116.06;5091392;28;20031;-90
2023/03/09 01:43:55;;;;;;;25.85;13.63;;;;;;;2.42;83.42;99131.41;5083744;28;20028;-90
2023/03/09 01:46:20;;;;;;;29.63;14.63;;;;;;;2.46;83.15;99139.06;5067392;28;20282;-90
2023/03/09 01:49:06;;;;;;;26.23;13.85;;;;;;;2.50;83.26;99139.81;5091255;28;20095;-90
2023/03/09 01:51:51;;;;;;;27.17;13.55;;;;;;;2.53;82.52;99130.13;5073103;28;20073;-90
2023/03/09 01:54:27;;;;;;;29.88;13.88;;;;;;;2.61;82.30;99118.56;5072857;28;20024;-90
2023/03/09 01:56:58;;;;;;;27.17;14.20;;;;;;;2.73;82.34;99145.09;5073252;28;20241;-90
2023/03/09 01:59:27;;;;;;;29.23;14.68;;;;;;;2.77;82.15;99154.50;5090867;28;20095;-90
2023/03/09 02:01:52;;;;;;;30.30;13.88;;;;;;;2.80;82.11;99149.19;5087429;28;20032;-90
2023/03/09 02:04:26;;;;;;;28.77;15.02;;;;;;;2.75;81.89;99147.63;5087189;28;20475;-90
2023/03/09 02:06:51;;;;;;;27.25;13.75;;;;;;;2.73;81.66;99157.28;5072290;28;20024;-90
2023/03/09 02:09:31;;;;;;;28.60;13.70;;;;;;;2.75;81.69;99171.09;5072516;28;20034;-90
2023/03/09 02:11:58;;;;;;;29.40;14.60;;;;;;;2.68;81.71;99167.03;5089328;28;20110;-90
2023/03/09 02:14:24;;;;;;;28.38;14.32;;;;;;;2.81;81.98;99191.78;5090126;28;20546;-90
2023/03/09 02:16:49;;;;;;;28.80;14.57;;;;;;;2.82;81.70;99175.22;5073112;28;20054;-91
2023/03/09 02:19:38;;;;;;;29.38;15.70;;;;;;;2.97;81.65;99189.47;5072741;28;20108;-90
2023/03/09 02:22:04;;;;;;;30.00;15.55;;;;;;;2.89;81.41;99175.84;5034909;28;20032;-90
2023/03/09 02:25:19;;;;;;;26.75;14.02;;;;;;;2.60;82.76;99149.03;5090897;28;20031;-90
2023/03/09 02:27:45;;;;;;;30.77;15.40;;;;;;;2.47;82.96;99142.53;4997551;28;20065;-90
2023/03/09 02:30:11;;;;;;;28.75;14.25;;;;;;;2.59;83.25;99175.16;4991765;28;20026;-90
2023/03/09 02:32:37;;;;;;;32.88;14.50;;;;;;;2.79;82.32;99189.22;5052815;28;20628;-90
2023/03/09 02:35:03;;;;;;;28.77;14.88;;;;;;;2.81;81.81;99181.34;5077394;28;20103;-90
2023/03/09 02:37:35;;;;;;;28.92;15.02;;;;;;;2.77;81.78;99184.97;5090922;28;20051;-90
2023/03/09 02:40:20;;;;;;;;;;;;;;;2.92;81.25;99192.25;5072917;28;20024;-90
2023/03/09 02:42:47;;;;;;;27.70;12.27;;;;;;;2.37;82.72;99190.69;5089400;28;19947;-90
2023/03/09 02:45:15;;;;;;;30.52;14.23;;;;;;;2.35;83.07;99206.41;5090694;28;20016;-90
2023/03/09 02:47:41;;;;;;;31.55;15.25;;;;;;;2.25;83.71;99195.41;5090730;28;20024;-90
2023/03/09 02:50:07;;;;;;;31.70;15.45;;;;;;;2.24;83.65;99196.31;5077165;28;20043;-90
2023/03/09 02:52:32;;;;;;;27.77;13.90;;;;;;;2.26;83.74;99193.66;5071859;28;20299;-90
2023/03/09 02:54:58;;;;;;;27.52;14.02;;;;;;;2.24;83.72;99192.88;5090424;28;20103;-90
2023/03/09 02:57:23;;;;;;;29.90;15.07;;;;;;;2.28;83.73;99207.47;5072546;28;20111;-90
2023/03/09 02:59:48;;;;;;;27.00;14.80;;;;;;;2.27;83.75;99195.34;5072077;28;20121;-90
2023/03/09 03:02:14;;;;;;;34.63;15.52;;;;;;;2.26;84.24;99196.25;5069423;28;20541;-90
2023/03/09 03:04:39;;;;;;;29.10;15.05;;;;;;;2.32;83.93;99197.81;5070987;28;20035;-90
2023/03/09 03:07:04;;;;;;;30.02;14.98;;;;;;;2.35;83.91;99209.00;5072517;28;20044;-90
2023/03/09 03:09:30;;;;;;;30.92;14.68;;;;;;;2.34;84.13;99204.69;5072040;28;20118;-89
2023/03/09 03:11:56;;;;;;;32.33;16.88;;;;;;;2.25;84.27;99192.81;5090387;28;20046;-90
2023/03/09 03:14:21;;;;;;;31.17;15.27;;;;;;;2.29;84.21;99210.06;5072193;28;20027;-90
2023/03/09 03:16:46;;;;;;;31.70;15.70;;;;;;;2.30;84.38;99206.53;5072265;28;20436;-89
2023/03/09 03:19:12;;;;;;;32.83;16.63;;;;;;;2.27;83.97;99192.75;5092408;28;20023;-89
2023/03/09 03:21:37;;;;;;;33.55;16.38;;;;;;;2.28;84.27;99197.06;5076068;28;20455;-90
2023/03/09 03:24:02;;;;;;;34.75;16.63;;;;;;;2.22;84.21;99202.47;5093678;28;20089;-89
2023/03/09 03:26:28;;;;;;;35.05;15.95;;;;;;;2.10;84.35;99188.09;5094213;28;20028;-90
2023/03/09 03:28:53;;;;;;;35.58;17.65;;;;;;;2.18;84.69;99212.16;5075571;28;20024;-90
2023/03/09 03:31:19;;;;;;;35.92;16.52;;;;;;;2.24;84.40;99218.94;5094060;28;20028;-89
2023/03/09 03:33:44;;;;;;;36.08;17.35;;;;;;;2.26;84.00;99230.16;5065727;28;20028;-90
2023/03/09 03:36:09;;;;;;;35.92;18.35;;;;;;;2.12;84.47;99211.50;5075822;28;20475;-89
2023/03/09 03:38:34;;;;;;;39.97;18.98;;;;;;;2.22;84.66;99231.16;5062211;28;20035;-90
2023/03/09 03:41:00;;;;;;;37.78;17.75;;;;;;;2.27;84.88;99255.31;5094097;28;20035;-89
2023/03/09 03:43:25;;;;;;;40.30;18.50;;;;;;;2.21;84.64;99247.72;5093268;28;20032;-90
2023/03/09 03:45:50;;;;;;;37.00;17.48;;;;;;;2.34;84.33;99275.09;5075554;28;20225;-90
2023/03/09 03:48:16;;;;;;;38.08;18.92;;;;;;;2.28;84.40;99263.13;5075455;28;20036;-90
2023/03/09 03:50:41;;;;;;;40.83;17.83;;;;;;;2.30;84.81;99273.50;5075426;28;20434;-90
2023/03/09 03:53:06;;;;;;;42.65;18.13;;;;;;;2.29;84.45;99274.41;5071030;28;20028;-90
2023/03/09 03:55:32;;;;;;;38.25;18.05;;;;;;;2.38;83.89;99289.75;5075044;28;20052;-90
2023/03/09 03:57:58;;;;;;;41.80;20.05;;;;;;;2.29;83.96;99271.78;5075157;28;20081;-90
2023/03/09 04:00:24;;;;;;;42.65;19.17;;;;;;;2.32;83.54;99269.06;5075165;28;20070;-90
2023/03/09 04:02:50;;;;;;;36.58;17.25;;;;;;;2.29;83.64;99277.00;5070744;28;20520;-90
2023/03/09 04:05:15;;;;;;;40.08;18.55;;;;;;;2.41;83.98;99302.69;5075326;28;20107;-90
2023/03/09 04:07:41;;;;;;;38.20;18.17;;;;;;;2.41;84.35;99299.22;5074988;28;20089;-90
2023/03/09 04:10:07;;;;;;;44.63;19.70;;;;;;;2.42;84.38;99285.28;5074794;28;20475;-90
2023/03/09 04:12:32;;;;;;;40.55;19.10;;;;;;;2.39;84.15;99286.25;5071972;28;20060;-90
2023/03/09 04:14:57;;;;;;;40.83;19.33;;;;;;;2.37;83.75;99290.63;5065734;28;20505;-90
2023/03/09 04:17:22;;;;;;;41.08;19.17;;;;;;;2.32;84.23;99295.16;5074872;28;20027;-90
2023/03/09 04:19:48;;;;;;;44.40;19.75;;;;;;;2.29;84.27;99298.72;5074619;28;20487;-90
2023/03/09 04:22:13;;;;;;;41.92;19.85;;;;;;;2.30;84.33;99296.97;5092698;28;20052;-90
2023/03/09 04:24:38;;;;;;;44.33;19.17;;;;;;;2.19;84.30;99286.88;5064810;28;20020;-90
2023/03/09 04:27:04;;;;;;;41.60;18.88;;;;;;;2.26;84.48;99306.63;5074902;28;20480;-90
2023/03/09 04:29:29;;;;;;;43.55;20.38;;;;;;;2.28;84.48;99314.38;5074328;28;20081;-89
2023/03/09 04:31:54;;;;;;;47.40;20.85;;;;;;;2.23;84.52;99304.09;5091922;28;20072;-90
2023/03/09 04:34:19;;;;;;;45.13;19.75;;;;;;;2.20;84.67;99306.81;5092378;28;20031;-89
2023/03/09 04:36:45;;;;;;;44.40;20.55;;;;;;;2.27;84.38;99320.50;5074534;28;20028;-90
2023/03/09 04:39:10;;;;;;;49.42;21.40;;;;;;;2.18;84.81;99311.22;5092665;28;20024;-90
2023/03/09 04:41:35;;;;;;;45.83;20.52;;;;;;;2.21;84.70;99321.56;5074320;28;20480;-90
2023/03/09 04:44:02;;;;;;;49.38;21.10;;;;;;;2.26;84.61;99329.25;5088260;28;20020;-90
2023/03/09 04:46:27;;;;;;;48.05;21.42;;;;;;;2.29;84.97;99340.44;5074512;28;20031;-90
2023/03/09 04:48:53;;;;;;;44.88;19.73;;;;;;;2.23;84.92;99321.50;5092460;28;20537;-90
2023/03/09 04:51:18;;;;;;;51.65;21.70;;;;;;;2.36;84.44;99354.13;5074209;28;20085;-90
2023/03/09 04:53:44;;;;;;;57.47;24.15;;;;;;;2.26;84.44;99337.91;5072183;28;20020;-90
2023/03/09 04:56:09;;;;;;;53.33;22.13;;;;;;;2.20;84.45;99335.50;5092084;28;20052;-90
2023/03/09 04:58:34;;;;;;;52.80;22.65;;;;;;;2.33;84.35;99362.03;5074189;28;20032;-90
2023/03/09 05:01:02;;;;;;;54.42;23.25;;;;;;;2.27;84.70;99360.47;5073783;28;20020;-90
2023/03/09 05:03:28;;;;;;;50.05;22.67;;;;;;;2.26;84.69;99347.50;5073509;28;20479;-90
2023/03/09 05:05:54;;;;;;;56.40;23.58;;;;;;;2.23;84.60;99351.03;5091997;28;20042;-90
2023/03/09 05:08:19;;;;;;;59.30;24.58;;;;;;;2.31;84.84;99363.84;5092225;28;20031;-90
2023/03/09 05:10:45;;;;;;;60.22;23.80;;;;;;;2.24;84.87;99360.59;5073637;28;20036;-90
2023/03/09 05:13:11;;;;;;;63.75;26.85;;;;;;;2.25;84.87;99353.63;5085267;28;20019;-90
2023/03/09 05:15:40;;;;;;;58.20;24.35;;;;;;;2.31;84.82;99371.66;5086885;28;20028;-89
2023/03/09 05:18:07;;;;;;;55.42;24.35;;;;;;;2.27;84.61;99367.44;5073122;28;20020;-90
2023/03/09 05:20:32;;;;;;;61.42;25.70;;;;;;;2.23;84.57;99365.81;5091590;28;20474;-90
2023/03/09 05:23:01;;;;;;;57.03;24.20;;;;;;;2.20;84.42;99374.63;5068656;28;20021;-89
2023/03/09 05:25:27;;;;;;;58.85;24.92;;;;;;;2.27;84.77;99402.19;5069439;28;20051;-90
2023/03/09 05:27:52;;;;;;;61.47;25.33;;;;;;;2.20;84.58;99390.25;5091900;28;20412;-90
2023/03/09 05:30:19;;;;;;;61.38;26.05;;;;;;;2.23;84.78;99395.34;5091408;28;20038;-90
2023/03/09 05:32:44;;;;;;;58.72;25.75;;;;;;;2.27;84.51;99389.16;5073165;28;20494;-90
2023/03/09 05:35:10;;;;;;;58.47;24.08;;;;;;;2.40;84.13;99383.59;5073188;28;20024;-90
2023/03/09 05:37:35;;;;;;;55.10;24.65;;;;;;;2.49;83.98;99410.25;5073605;28;20040;-90
2023/03/09 05:40:00;;;;;;;55.65;22.90;;;;;;;2.47;83.81;99396.41;5072952;28;20271;-90
2023/03/09 05:42:26;;;;;;;61.58;26.90;;;;;;;2.56;83.35;99405.69;5091273;28;20031;-90
2023/03/09 05:44:51;;;;;;;57.03;24.05;;;;;;;2.36;83.64;99374.16;5086650;28;20032;-90
2023/03/09 05:47:16;;;;;;;57.75;24.00;;;;;;;2.40;83.79;99384.44;5073387;28;20017;-90
2023/03/09 05:49:42;;;;;;;56.72;25.05;;;;;;;2.43;83.71;99388.72;5091020;28;20131;-90
2023/03/09 05:52:07;;;;;;;59.47;24.90;;;;;;;2.49;83.22;99383.31;5073041;28;20032;-90
2023/03/09 05:54:33;;;;;;;57.47;25.35;;;;;;;2.42;83.14;99384.38;5089061;28;20051;-89
2023/03/09 05:56:58;;;;;;;53.63;23.77;;;;;;;2.43;83.69;99388.72;5073335;28;20472;-89
2023/03/09 05:59:24;;;;;;;54.00;23.40;;;;;;;2.41;83.63;99393.97;5072491;28;20479;-89
2023/03/09 06:01:49;;;;;;;52.83;23.15;;;;;;;2.42;83.65;99402.63;5082088;28;20016;-90
2023/03/09 06:04:14;;;;;;;55.65;23.70;;;;;;;2.36;83.35;99401.06;5056508;28;20033;-89
2023/03/09 06:06:40;;;;;;;54.55;24.17;;;;;;;2.44;83.53;99416.50;5073169;28;20016;-89
2023/03/09 06:09:05;;;;;;;55.28;24.13;;;;;;;2.48;83.35;99425.94;5072683;28;20020;-89
2023/03/09 06:11:31;;;;;;;61.95;23.92;;;;;;;2.42;83.33;99413.91;5072786;28;20035;-90
2023/03/09 06:13:57;;;;;;;53.97;23.58;;;;;;;2.48;83.33;99418.97;5090783;28;20045;-89
2023/03/09 06:16:23;;;;;;;48.95;22.88;;;;;;;2.52;83.06;99419.75;5072866;28;20126;-89
2023/03/09 06:18:48;;;;;;;53.33;22.65;;;;;;;2.46;82.92;99407.72;5090858;28;20479;-89
2023/03/09 06:21:14;;;;;;;45.35;21.77;;;;;;;2.46;83.03;99420.75;5090851;28;20027;-89
2023/03/09 06:23:39;;;;;;;52.97;23.27;;;;;;;2.49;83.08;99438.94;5083556;28;20096;-89
2023/03/09 06:26:08;;;;;;;51.90;23.80;;;;;;;2.53;83.40;99455.34;5091103;28;20047;-89
2023/03/09 06:28:34;;;;;;;56.20;22.77;;;;;;;2.55;83.15;99443.97;5090769;28;20032;-89
2023/03/09 06:31:12;;;;;;;53.90;24.52;;;;;;;2.61;83.43;99450.78;5090759;28;20052;-89
2023/03/09 06:33:41;;;;;;;55.67;23.45;;;;;;;2.57;83.17;99448.31;5067704;28;20099;-90
2023/03/09 06:36:12;;;;;;;57.72;24.33;;;;;;;2.68;83.65;99462.72;5090825;28;20031;-89
2023/03/09 06:38:38;;;;;;;55.63;24.23;;;;;;;2.63;83.33;99462.00;5072718;28;20051;-90
2023/03/09 06:41:03;;;;;;;60.90;25.27;;;;;;;2.66;83.16;99461.91;5072553;28;20480;-89
2023/03/09 06:43:28;;;;;;;58.95;25.10;;;;;;;2.69;83.22;99459.19;5086577;28;20029;-89
2023/03/09 06:45:54;;;;;;;49.63;23.27;;;;;;;2.67;83.27;99454.94;5063163;28;20028;-89
2023/03/09 06:48:19;;;;;;;51.85;24.23;;;;;;;2.71;83.37;99470.47;5072560;28;20139;-90
2023/03/09 06:50:45;;;;;;;51.95;23.13;;;;;;;2.65;83.26;99473.22;5090575;28;20035;-89
2023/03/09 06:53:11;;;;;;;52.53;24.35;;;;;;;2.72;83.47;99494.81;5090699;28;20053;-89
2023/03/09 06:55:38;;;;;;;59.45;23.45;;;;;;;2.73;83.46;99496.50;5072950;28;20059;-89
2023/03/09 06:58:03;;;;;;;56.13;24.90;;;;;;;2.66;83.65;99487.13;5092629;28;20019;-89
2023/03/09 07:00:28;;;;;;;53.17;22.70;;;;;;;2.70;83.32;99500.03;5064700;28;20032;-89
2023/03/09 07:02:54;;;;;;;55.78;23.63;;;;;;;2.72;83.38;99507.84;5094070;28;20229;-90
2023/03/09 07:05:19;;;;;;;53.28;23.65;;;;;;;2.78;83.17;99518.94;5076291;28;20587;-90
2023/03/09 07:07:44;;;;;;;54.22;22.88;;;;;;;2.78;83.16;99525.91;5076438;28;20027;-89
2023/03/09 07:10:11;;;;;;;57.90;22.90;;;;;;;2.70;83.08;99525.28;5075982;28;20024;-89
2023/03/09 07:12:36;;;;;;;50.42;22.27;;;;;;;2.73;82.76;99536.50;5094217;28;20031;-89
2023/03/09 07:15:01;;;;;;;55.63;23.40;;;;;;;2.68;83.18;99534.94;5085955;28;20042;-89
2023/03/09 07:17:27;;;;;;;57.17;23.40;;;;;;;2.73;83.13;99544.31;5094360;28;20032;-90
2023/03/09 07:19:52;;;;;;;48.40;22.13;;;;;;;2.84;83.56;99566.63;5083598;28;20051;-89
2023/03/09 07:22:18;;;;;;;53.72;22.55;;;;;;;2.82;83.09;99574.53;5072707;28;20023;-89
2023/03/09 07:24:43;;;;;;;55.45;24.65;;;;;;;2.86;83.04;99581.38;5070407;28;20024;-89
2023/03/09 07:27:09;;;;;;;56.60;23.63;;;;;;;2.82;82.58;99571.91;5075974;28;20026;-89
2023/03/09 07:29:34;;;;;;;49.65;21.17;;;;;;;2.83;83.31;99572.75;5093725;28;20047;-89
2023/03/09 07:32:02;;;;;;;53.92;23.48;;;;;;;2.85;83.17;99574.44;5093785;28;20027;-89
2023/03/09 07:34:27;;;;;;;54.13;23.35;;;;;;;2.85;83.40;99564.00;5065469;28;20012;-89
2023/03/09 07:36:52;;;;;;;48.95;22.77;;;;;;;2.93;83.47;99576.81;5072128;28;20077;-89
2023/03/09 07:39:17;;;;;;;54.22;23.30;;;;;;;2.82;83.27;99577.13;5075646;28;20498;-89
2023/03/09 07:41:43;;;;;;;49.97;22.50;;;;;;;2.84;83.33;99597.97;5075612;28;20384;-89
2023/03/09 07:44:08;;;;;;;52.78;21.83;;;;;;;2.81;83.35;99594.56;5093143;28;20376;-89
2023/03/09 07:46:34;;;;;;;55.60;22.98;;;;;;;2.97;83.36;99618.44;5093681;28;20032;-89
2023/03/09 07:48:59;;;;;;;49.30;20.70;;;;;;;2.81;83.07;99585.88;5075373;28;20027;-89
2023/03/09 07:51:24;;;;;;;54.50;22.70;;;;;;;2.81;83.16;99588.47;5093644;28;20485;-89
2023/03/09 07:53:50;;;;;;;48.30;20.38;;;;;;;2.94;83.16;99617.72;5075151;28;20020;-89
2023/03/09 07:56:15;;;;;;;45.63;20.13;;;;;;;2.87;83.36;99611.78;5093361;28;20135;-89
2023/03/09 07:58:41;;;;;;;55.17;23.00;;;;;;;2.94;83.13;99615.09;5093245;28;20032;-90
2023/03/09 08:01:12;;;;;;;54.00;22.42;;;;;;;2.95;83.22;99596.75;5090108;28;20372;-89
2023/03/09 08:03:38;;;;;;;52.75;22.40;;;;;;;3.10;83.22;99618.09;5081582;28;20115;-90
2023/03/09 08:06:05;;;;;;;56.08;22.60;;;;;;;3.20;83.03;99617.78;5089551;28;20046;-89
2023/03/09 08:08:31;;;;;;;53.05;21.90;;;;;;;3.26;82.82;99625.44;5077749;28;20483;-89
2023/03/09 08:10:57;;;;;;;51.97;21.55;;;;;;;3.17;82.53;99599.59;5078123;28;20079;-89
2023/03/09 08:13:23;;;;;;;53.40;23.02;;;;;;;3.39;82.42;99633.75;5094421;28;20067;-89
2023/03/09 08:15:50;;;;;;;56.47;24.00;;;;;;;3.35;82.45;99626.91;5090977;28;20028;-89
2023/03/09 08:18:17;;;;;;;52.15;21.38;;;;;;;3.42;82.48;99630.22;5076034;28;20020;-89
2023/03/09 08:20:43;;;;;;;57.85;21.58;;;;;;;3.49;81.48;99650.84;5093441;28;20062;-89
2023/03/09 08:23:09;;;;;;;52.22;20.75;;;;;;;3.40;81.58;99639.81;5083292;28;20032;-90
2023/03/09 08:25:34;;;;;;;57.75;22.27;;;;;;;3.41;81.99;99641.56;5090874;28;20032;-89
2023/03/09 08:28:00;;;;;;;49.95;21.40;;;;;;;3.45;81.82;99645.75;5075649;28;20027;-89
2023/03/09 08:30:25;;;;;;;55.22;22.88;;;;;;;3.49;81.66;99652.63;5094560;28;20484;-89
2023/03/09 08:32:52;;;;;;;54.75;22.42;;;;;;;3.48;81.54;99645.69;5093231;28;20483;-90
2023/03/09 08:35:20;;;;;;;51.72;20.17;;;;;;;3.51;81.53;99648.22;5079455;28;20048;-89
2023/03/09 08:37:46;;;;;;;54.42;22.60;;;;;;;3.57;81.66;99659.31;5075763;28;20530;-89
2023/03/09 08:40:12;;;;;;;53.58;20.98;;;;;;;3.64;81.20;99665.22;5092795;28;20358;-89
2023/03/09 08:42:37;;;;;;;51.30;21.30;;;;;;;3.56;81.05;99673.28;5092962;28;20027;-89
2023/03/09 08:45:04;;;;;;;54.67;23.20;;;;;;;3.63;81.26;99692.25;5063345;28;20118;-89
2023/03/09 08:47:30;;;;;;;54.45;21.48;;;;;;;3.64;80.82;99695.72;5093335;28;20590;-89
2023/03/09 08:49:55;;;;;;;55.03;21.75;;;;;;;3.60;81.16;99676.69;5088927;28;20100;-89
2023/03/09 08:52:21;;;;;;;50.60;20.48;;;;;;;3.72;80.74;99683.28;5061544;28;20079;-89
2023/03/09 08:54:47;;;;;;;52.38;21.40;;;;;;;3.72;80.98;99663.22;5084862;28;20048;-89
2023/03/09 08:57:12;;;;;;;49.00;20.67;;;;;;;4.01;81.35;99678.00;5092642;28;20445;-89
2023/03/09 08:59:38;;;;;;;57.40;21.60;;;;;;;4.25;79.71;99673.75;5073369;28;20027;-89
2023/03/09 09:02:04;;;;;;;51.80;21.60;;;;;;;4.22;80.42;99688.66;5063310;28;20392;-89
2023/03/09 09:04:29;;;;;;;50.95;21.75;;;;;;;4.24;79.96;99689.47;5090870;28;20518;-90
2023/03/09 09:06:55;;;;;;;48.40;19.45;;;;;;;4.28;79.12;99698.91;5093742;28;20031;-90
2023/03/09 09:09:21;;;;;;;48.75;21.02;;;;;;;4.33;78.58;99720.56;5094307;28;20069;-90
2023/03/09 09:11:46;;;;;;;51.78;20.92;;;;;;;4.14;78.24;99707.22;5074200;28;20020;-89
2023/03/09 09:14:12;;;;;;;52.97;21.70;;;;;;;3.91;78.27;99712.31;5074836;28;20027;-90
2023/03/09 09:16:37;;;;;;;47.15;18.73;;;;;;;3.88;78.07;99726.34;5092481;28;20047;-89
2023/03/09 09:19:02;;;;;;;47.83;19.90;;;;;;;3.85;78.74;99729.06;5092336;28;20063;-89
2023/03/09 09:21:28;;;;;;;52.00;21.75;;;;;;;3.75;79.56;99725.00;5081395;28;20472;-89
2023/03/09 09:23:54;;;;;;;55.35;21.92;;;;;;;3.83;79.77;99728.25;5069995;28;20097;-89
2023/03/09 09:26:20;;;;;;;55.30;21.75;;;;;;;3.91;79.90;99722.78;5093044;28;20030;-89
2023/03/09 09:28:46;;;;;;;52.08;22.20;;;;;;;4.06;79.89;99710.09;5071595;28;20055;-89
2023/03/09 09:31:17;;;;;;;49.70;20.52;;;;;;;4.28;79.60;99709.38;5082982;28;20073;-89
2023/03/09 09:33:42;;;;;;;51.92;21.25;;;;;;;4.45;78.98;99712.31;5091881;28;20097;-90
2023/03/09 09:36:13;;;;;;;49.92;20.73;;;;;;;4.71;78.06;99731.50;5066373;28;20388;-89
2023/03/09 09:38:39;;;;;;;51.25;21.00;;;;;;;4.36;78.66;99712.63;5075348;28;20467;-90
2023/03/09 09:41:14;;;;;;;52.60;22.27;;;;;;;4.51;79.10;99724.34;5075060;28;20027;-89
2023/03/09 09:43:41;;;;;;;54.65;22.60;;;;;;;4.58;78.53;99738.94;5092519;28;20498;-89
2023/03/09 09:46:10;;;;;;;52.95;22.95;;;;;;;4.65;77.94;99729.97;5068072;28;20547;-89
2023/03/09 09:48:37;;;;;;;51.08;21.23;;;;;;;4.32;77.97;99735.41;5062074;28;20474;-89
2023/03/09 09:51:30;;;;;;;54.72;21.77;;;;;;;4.33;78.95;99736.25;5092883;28;20044;-89
2023/03/09 09:54:18;;;;;;;52.70;20.40;;;;;;;4.34;79.18;99751.06;5082813;28;20048;-89
2023/03/09 09:56:48;;;;;;;49.78;20.00;;;;;;;4.43;78.66;99735.06;5046886;28;20135;-88
2023/03/09 09:59:46;;;;;;;49.28;21.98;;;;;;;4.53;77.26;99738.25;5093182;28;20091;-89
2023/03/09 10:02:42;;;;;;;59.15;21.88;;;;;;;4.52;77.11;99745.25;5074119;28;20028;-89
2023/03/09 10:05:13;;;;;;;52.55;20.67;;;;;;;4.56;77.61;99745.97;5087192;28;20031;-88
2023/03/09 10:07:40;;;;;;;52.88;21.88;;;;;;;4.36;76.88;99738.78;5073052;28;20028;-89
2023/03/09 10:10:15;;;;;;;49.92;20.70;;;;;;;4.35;77.63;99737.94;5074775;28;20027;-89
2023/03/09 10:12:41;;;;;;;52.85;21.63;;;;;;;4.32;78.16;99751.09;5088687;28;20034;-89
2023/03/09 10:15:13;;;;;;;55.88;23.20;;;;;;;4.18;78.07;99749.84;5089277;28;20024;-89
2023/03/09 10:17:51;;;;;;;52.63;22.40;;;;;;;4.34;78.05;99754.53;5091001;28;20438;-89
2023/03/09 10:20:29;;;;;;;47.10;20.50;;;;;;;4.54;78.42;99751.28;5072415;28;20016;-89
2023/03/09 10:22:55;;;;;;;47.58;20.90;;;;;;;4.61;77.07;99754.53;5091848;28;20374;-89
2023/03/09 10:25:22;;;;;;;44.95;19.73;;;;;;;4.70;77.91;99756.84;5072518;28;20050;-89
2023/03/09 10:28:14;;;;;;;48.03;19.95;;;;;;;4.86;77.45;99746.72;5090415;28;20379;-89
2023/03/09 10:30:47;;;;;;;51.50;22.17;;;;;;;5.07;77.73;99758.19;5072537;28;20055;-89
2023/03/09 10:33:38;;;;;;;51.95;24.15;;;;;;;5.08;75.67;99738.94;5090653;28;20684;-89
2023/03/09 10:36:21;;;;;;;38.83;17.13;;;;;;;5.47;75.62;99752.41;5072051;28;20020;-90
2023/03/09 10:38:47;;;;;;;50.20;21.92;;;;;;;5.43;73.80;99742.09;5072729;28;20024;-89
2023/03/09 10:41:19;;;;;;;51.95;21.10;;;;;;;5.34;74.79;99733.63;5090634;28;20028;-89
2023/03/09 10:43:45;;;;;;;42.08;18.17;;;;;;;5.45;74.98;99751.59;5071729;28;20031;-90
2023/03/09 10:46:16;;;;;;;48.10;20.40;;;;;;;5.47;75.08;99747.16;5072219;28;20055;-90
2023/03/09 10:48:43;;;;;;;47.55;20.30;;;;;;;5.61;74.53;99755.38;5076129;28;20028;-89
2023/03/09 10:51:33;;;;;;;52.55;21.70;;;;;;;5.49;73.21;99761.03;5072283;28;20035;-90
2023/03/09 10:54:22;;;;;;;52.67;21.48;;;;;;;5.57;74.75;99752.91;5040983;28;20040;-90
2023/03/09 10:56:47;;;;;;;47.53;18.38;;;;;;;5.60;74.77;99748.41;5072746;28;20044;-90
2023/03/09 10:59:16;;;;;;;45.35;18.73;;;;;;;5.63;73.86;99753.53;5083225;28;20375;-90
2023/03/09 11:01:51;;;;;;;45.60;19.85;;;;;;;5.66;74.15;99768.31;5073690;28;20027;-90
2023/03/09 11:04:22;;;;;;;49.85;20.48;;;;;;;5.75;75.03;99756.63;5084893;28;20376;-90
2023/03/09 11:06:52;;;;;;;52.27;21.13;;;;;;;5.92;75.00;99748.13;5091548;28;20499;-90
2023/03/09 11:09:43;;;;;;;46.80;20.17;;;;;;;6.09;74.41;99743.06;5091212;28;20051;-90
2023/03/09 11:12:14;;;;;;;257.67;40.10;;;;;;;6.19;74.15;99752.28;5059938;28;20032;-88
2023/03/09 11:14:52;;;;;;;45.17;19.67;;;;;;;6.14;73.33;99734.09;5090276;28;20031;-90
2023/03/09 11:17:44;;;;;;;47.05;20.63;;;;;;;6.21;73.94;99749.63;5070431;28;20046;-90
2023/03/09 11:20:18;;;;;;;;;;;;;;;6.19;74.93;99761.94;5092901;28;20063;-91
2023/03/09 11:22:58;;;;;;;44.72;18.20;;;;;;;5.97;74.74;99733.06;5069768;28;19908;-90
2023/03/09 11:26:01;;;;;;;46.13;19.77;;;;;;;6.03;74.66;99752.06;5073474;28;20043;-90
2023/03/09 11:28:45;;;;;;;46.30;19.40;;;;;;;5.95;74.36;99748.88;5092048;28;20118;-90
2023/03/09 11:31:17;;;;;;;42.95;19.27;;;;;;;5.77;73.74;99754.78;5073544;28;20383;-90